sensor_id;sensor_type;location;lat;lon;timestamp;P1;durP1;ratioP1;P2;durP2;ratioP2
13463;SDS011;6804;48.774;9.174;2022-12-07T00:01:44;5.00;;;4.50;;
13463;SDS011;6804;48.774;9.174;2022-12-07T00:04:14;8.70;;;4.73;;
13463;SDS011;6804;48.774;9.174;2022-12-07T00:06:43;7.37;;;5.27;;
13463;SDS011;6804;48.774;9.174;2022-12-07T00:09:14;5.67;;;4.40;;
13463;SDS011;6804;48.774;9.174;2022-12-07T00:11:49;5.67;;;4.93;;
13463;SDS011;6804;48.774;9.174;2022-12-07T00:14:19;5.20;;;4.70;;
13463;SDS011;6804;48.774;9.174;2022-12-07T00:16:48;6.47;;;5.10;;
13463;SDS011;6804;48.774;9.174;2022-12-07T00:19:16;6.47;;;5.60;;
13463;SDS011;6804;48.774;9.174;2022-12-07T00:21:47;5.53;;;4.83;;
13463;SDS011;6804;48.774;9.174;2022-12-07T00:24:19;7.17;;;4.83;;
13463;SDS011;6804;48.774;9.174;2022-12-07T00:26:46;6.07;;;5.23;;
13463;SDS011;6804;48.774;9.174;2022-12-07T00:29:15;5.90;;;5.30;;
13463;SDS011;6804;48.774;9.174;2022-12-07T00:31:48;5.80;;;5.20;;
13463;SDS011;6804;48.774;9.174;2022-12-07T00:34:16;5.90;;;4.90;;
13463;SDS011;6804;48.774;9.174;2022-12-07T00:36:48;6.33;;;5.60;;
13463;SDS011;6804;48.774;9.174;2022-12-07T00:39:19;6.70;;;6.03;;
13463;SDS011;6804;48.774;9.174;2022-12-07T00:41:46;6.40;;;5.63;;
13463;SDS011;6804;48.774;9.174;2022-12-07T00:44:14;6.67;;;5.40;;
13463;SDS011;6804;48.774;9.174;2022-12-07T00:46:42;6.37;;;5.53;;
13463;SDS011;6804;48.774;9.174;2022-12-07T00:49:13;5.97;;;5.27;;
13463;SDS011;6804;48.774;9.174;2022-12-07T00:51:40;7.43;;;5.50;;
13463;SDS011;6804;48.774;9.174;2022-12-07T00:54:08;6.87;;;5.73;;
13463;SDS011;6804;48.774;9.174;2022-12-07T00:56:38;6.20;;;5.60;;
13463;SDS011;6804;48.774;9.174;2022-12-07T00:59:10;8.43;;;6.80;;
13463;SDS011;6804;48.774;9.174;2022-12-07T01:01:39;6.33;;;5.63;;
13463;SDS011;6804;48.774;9.174;2022-12-07T01:04:08;7.50;;;6.00;;
13463;SDS011;6804;48.774;9.174;2022-12-07T01:06:39;6.50;;;5.70;;
13463;SDS011;6804;48.774;9.174;2022-12-07T01:09:09;7.13;;;6.40;;
13463;SDS011;6804;48.774;9.174;2022-12-07T01:11:44;7.43;;;6.47;;
13463;SDS011;6804;48.774;9.174;2022-12-07T01:14:12;7.70;;;5.97;;
13463;SDS011;6804;48.774;9.174;2022-12-07T01:16:39;7.43;;;5.73;;
13463;SDS011;6804;48.774;9.174;2022-12-07T01:19:08;7.03;;;6.23;;
13463;SDS011;6804;48.774;9.174;2022-12-07T01:21:42;6.10;;;5.37;;
13463;SDS011;6804;48.774;9.174;2022-12-07T01:24:10;6.90;;;5.47;;
13463;SDS011;6804;48.774;9.174;2022-12-07T01:26:41;6.37;;;5.67;;
13463;SDS011;6804;48.774;9.174;2022-12-07T01:29:09;7.93;;;6.33;;
13463;SDS011;6804;48.774;9.174;2022-12-07T01:31:37;8.50;;;5.97;;
13463;SDS011;6804;48.774;9.174;2022-12-07T01:34:12;6.77;;;6.03;;
13463;SDS011;6804;48.774;9.174;2022-12-07T01:36:39;7.90;;;6.40;;
13463;SDS011;6804;48.774;9.174;2022-12-07T01:39:09;7.90;;;6.07;;
13463;SDS011;6804;48.774;9.174;2022-12-07T01:41:38;8.10;;;6.73;;
13463;SDS011;6804;48.774;9.174;2022-12-07T01:44:19;7.40;;;6.60;;
13463;SDS011;6804;48.774;9.174;2022-12-07T01:46:50;6.87;;;5.80;;
13463;SDS011;6804;48.774;9.174;2022-12-07T01:49:24;6.33;;;5.20;;
13463;SDS011;6804;48.774;9.174;2022-12-07T01:52:06;7.20;;;5.50;;
13463;SDS011;6804;48.774;9.174;2022-12-07T01:54:39;9.30;;;6.50;;
13463;SDS011;6804;48.774;9.174;2022-12-07T01:57:08;7.70;;;6.47;;
13463;SDS011;6804;48.774;9.174;2022-12-07T01:59:40;7.67;;;5.63;;
13463;SDS011;6804;48.774;9.174;2022-12-07T02:02:12;8.37;;;6.10;;
13463;SDS011;6804;48.774;9.174;2022-12-07T02:04:46;8.73;;;6.27;;
13463;SDS011;6804;48.774;9.174;2022-12-07T02:07:16;8.57;;;6.23;;
13463;SDS011;6804;48.774;9.174;2022-12-07T02:09:43;7.37;;;6.07;;
13463;SDS011;6804;48.774;9.174;2022-12-07T02:12:11;7.57;;;6.00;;
13463;SDS011;6804;48.774;9.174;2022-12-07T02:14:38;6.70;;;6.00;;
13463;SDS011;6804;48.774;9.174;2022-12-07T02:17:13;7.97;;;6.63;;
13463;SDS011;6804;48.774;9.174;2022-12-07T02:19:53;6.70;;;6.00;;
13463;SDS011;6804;48.774;9.174;2022-12-07T02:25:23;7.67;;;6.03;;
13463;SDS011;6804;48.774;9.174;2022-12-07T02:28:04;7.33;;;6.47;;
13463;SDS011;6804;48.774;9.174;2022-12-07T02:30:44;6.63;;;5.27;;
13463;SDS011;6804;48.774;9.174;2022-12-07T02:33:19;7.87;;;6.60;;
13463;SDS011;6804;48.774;9.174;2022-12-07T02:35:53;7.53;;;5.93;;
13463;SDS011;6804;48.774;9.174;2022-12-07T02:38:28;6.47;;;5.77;;
13463;SDS011;6804;48.774;9.174;2022-12-07T02:41:04;7.13;;;6.43;;
13463;SDS011;6804;48.774;9.174;2022-12-07T02:43:37;6.33;;;5.73;;
13463;SDS011;6804;48.774;9.174;2022-12-07T02:46:15;6.60;;;5.90;;
13463;SDS011;6804;48.774;9.174;2022-12-07T02:48:50;7.13;;;6.27;;
13463;SDS011;6804;48.774;9.174;2022-12-07T02:51:21;7.47;;;5.90;;
13463;SDS011;6804;48.774;9.174;2022-12-07T02:53:49;10.23;;;6.03;;
13463;SDS011;6804;48.774;9.174;2022-12-07T02:56:21;7.53;;;6.67;;
13463;SDS011;6804;48.774;9.174;2022-12-07T02:58:59;7.30;;;6.00;;
13463;SDS011;6804;48.774;9.174;2022-12-07T03:01:34;7.40;;;5.93;;
13463;SDS011;6804;48.774;9.174;2022-12-07T03:04:12;7.47;;;6.00;;
13463;SDS011;6804;48.774;9.174;2022-12-07T03:06:53;8.43;;;6.10;;
13463;SDS011;6804;48.774;9.174;2022-12-07T03:09:32;6.97;;;5.30;;
13463;SDS011;6804;48.774;9.174;2022-12-07T03:12:06;6.50;;;5.27;;
13463;SDS011;6804;48.774;9.174;2022-12-07T03:14:40;6.47;;;5.80;;
13463;SDS011;6804;48.774;9.174;2022-12-07T03:17:15;6.80;;;5.80;;
13463;SDS011;6804;48.774;9.174;2022-12-07T03:19:47;5.87;;;5.20;;
13463;SDS011;6804;48.774;9.174;2022-12-07T03:22:19;6.60;;;5.20;;
13463;SDS011;6804;48.774;9.174;2022-12-07T03:24:49;7.30;;;6.07;;
13463;SDS011;6804;48.774;9.174;2022-12-07T03:27:24;9.13;;;5.90;;
13463;SDS011;6804;48.774;9.174;2022-12-07T03:29:57;6.53;;;5.47;;
13463;SDS011;6804;48.774;9.174;2022-12-07T03:32:31;7.67;;;5.97;;
13463;SDS011;6804;48.774;9.174;2022-12-07T03:35:02;6.83;;;5.77;;
13463;SDS011;6804;48.774;9.174;2022-12-07T03:37:36;7.57;;;5.33;;
13463;SDS011;6804;48.774;9.174;2022-12-07T03:40:10;6.43;;;5.43;;
13463;SDS011;6804;48.774;9.174;2022-12-07T03:42:42;6.67;;;5.73;;
13463;SDS011;6804;48.774;9.174;2022-12-07T03:45:10;6.40;;;5.60;;
13463;SDS011;6804;48.774;9.174;2022-12-07T03:47:47;8.17;;;6.10;;
13463;SDS011;6804;48.774;9.174;2022-12-07T03:50:25;7.07;;;5.60;;
13463;SDS011;6804;48.774;9.174;2022-12-07T03:52:58;6.00;;;5.40;;
13463;SDS011;6804;48.774;9.174;2022-12-07T03:55:34;6.00;;;5.20;;
13463;SDS011;6804;48.774;9.174;2022-12-07T03:58:05;6.43;;;5.67;;
13463;SDS011;6804;48.774;9.174;2022-12-07T04:00:35;7.23;;;5.57;;
13463;SDS011;6804;48.774;9.174;2022-12-07T04:03:04;6.60;;;5.17;;
13463;SDS011;6804;48.774;9.174;2022-12-07T04:05:31;6.93;;;5.50;;
13463;SDS011;6804;48.774;9.174;2022-12-07T04:08:06;6.60;;;5.70;;
13463;SDS011;6804;48.774;9.174;2022-12-07T04:10:33;6.17;;;5.57;;
13463;SDS011;6804;48.774;9.174;2022-12-07T04:13:01;7.47;;;5.90;;
13463;SDS011;6804;48.774;9.174;2022-12-07T04:15:31;6.87;;;5.77;;
13463;SDS011;6804;48.774;9.174;2022-12-07T04:17:59;7.83;;;5.80;;
13463;SDS011;6804;48.774;9.174;2022-12-07T04:20:27;7.70;;;5.67;;
13463;SDS011;6804;48.774;9.174;2022-12-07T04:22:54;6.90;;;5.30;;
13463;SDS011;6804;48.774;9.174;2022-12-07T04:25:24;7.17;;;5.33;;
13463;SDS011;6804;48.774;9.174;2022-12-07T04:27:51;5.20;;;4.67;;
13463;SDS011;6804;48.774;9.174;2022-12-07T04:30:22;7.07;;;5.10;;
13463;SDS011;6804;48.774;9.174;2022-12-07T04:32:49;4.30;;;3.90;;
13463;SDS011;6804;48.774;9.174;2022-12-07T04:35:16;6.23;;;5.40;;
13463;SDS011;6804;48.774;9.174;2022-12-07T04:37:45;7.30;;;5.33;;
13463;SDS011;6804;48.774;9.174;2022-12-07T04:40:12;7.57;;;5.93;;
13463;SDS011;6804;48.774;9.174;2022-12-07T04:42:45;6.03;;;5.13;;
13463;SDS011;6804;48.774;9.174;2022-12-07T04:45:12;6.90;;;5.67;;
13463;SDS011;6804;48.774;9.174;2022-12-07T04:47:40;6.87;;;5.27;;
13463;SDS011;6804;48.774;9.174;2022-12-07T04:50:09;6.77;;;5.50;;
13463;SDS011;6804;48.774;9.174;2022-12-07T04:52:36;6.37;;;5.43;;
13463;SDS011;6804;48.774;9.174;2022-12-07T04:55:08;6.97;;;5.17;;
13463;SDS011;6804;48.774;9.174;2022-12-07T04:57:35;5.97;;;5.37;;
13463;SDS011;6804;48.774;9.174;2022-12-07T05:00:03;5.17;;;4.60;;
13463;SDS011;6804;48.774;9.174;2022-12-07T05:02:34;6.03;;;4.67;;
13463;SDS011;6804;48.774;9.174;2022-12-07T05:05:01;5.57;;;4.67;;
13463;SDS011;6804;48.774;9.174;2022-12-07T05:07:30;6.30;;;4.90;;
13463;SDS011;6804;48.774;9.174;2022-12-07T05:09:57;6.07;;;4.70;;
13463;SDS011;6804;48.774;9.174;2022-12-07T05:12:26;4.80;;;3.90;;
13463;SDS011;6804;48.774;9.174;2022-12-07T05:14:53;4.97;;;4.07;;
13463;SDS011;6804;48.774;9.174;2022-12-07T05:17:21;4.30;;;3.77;;
13463;SDS011;6804;48.774;9.174;2022-12-07T05:19:48;4.63;;;3.70;;
13463;SDS011;6804;48.774;9.174;2022-12-07T05:22:15;4.53;;;3.60;;
13463;SDS011;6804;48.774;9.174;2022-12-07T05:24:43;4.27;;;3.70;;
13463;SDS011;6804;48.774;9.174;2022-12-07T05:27:11;3.80;;;3.30;;
13463;SDS011;6804;48.774;9.174;2022-12-07T05:29:39;4.40;;;4.00;;
13463;SDS011;6804;48.774;9.174;2022-12-07T05:32:06;4.73;;;3.57;;
13463;SDS011;6804;48.774;9.174;2022-12-07T05:34:34;4.43;;;3.60;;
13463;SDS011;6804;48.774;9.174;2022-12-07T05:37:07;4.70;;;3.50;;
13463;SDS011;6804;48.774;9.174;2022-12-07T05:39:37;4.70;;;3.83;;
13463;SDS011;6804;48.774;9.174;2022-12-07T05:42:09;4.03;;;3.43;;
13463;SDS011;6804;48.774;9.174;2022-12-07T05:44:44;4.40;;;3.73;;
13463;SDS011;6804;48.774;9.174;2022-12-07T05:47:14;4.80;;;4.23;;
13463;SDS011;6804;48.774;9.174;2022-12-07T05:49:42;5.63;;;4.50;;
13463;SDS011;6804;48.774;9.174;2022-12-07T05:52:09;5.63;;;4.83;;
13463;SDS011;6804;48.774;9.174;2022-12-07T05:54:36;5.70;;;4.50;;
13463;SDS011;6804;48.774;9.174;2022-12-07T05:57:04;5.20;;;4.10;;
13463;SDS011;6804;48.774;9.174;2022-12-07T05:59:34;4.63;;;3.83;;
13463;SDS011;6804;48.774;9.174;2022-12-07T06:02:06;5.20;;;4.20;;
13463;SDS011;6804;48.774;9.174;2022-12-07T06:04:42;4.70;;;3.83;;
13463;SDS011;6804;48.774;9.174;2022-12-07T06:07:10;5.23;;;4.27;;
13463;SDS011;6804;48.774;9.174;2022-12-07T06:09:39;5.63;;;4.40;;
13463;SDS011;6804;48.774;9.174;2022-12-07T06:12:06;5.37;;;4.47;;
13463;SDS011;6804;48.774;9.174;2022-12-07T06:14:53;5.37;;;4.17;;
13463;SDS011;6804;48.774;9.174;2022-12-07T06:17:24;5.33;;;4.77;;
13463;SDS011;6804;48.774;9.174;2022-12-07T06:19:54;5.07;;;4.40;;
13463;SDS011;6804;48.774;9.174;2022-12-07T06:22:28;6.40;;;5.00;;
13463;SDS011;6804;48.774;9.174;2022-12-07T06:24:58;5.57;;;4.30;;
13463;SDS011;6804;48.774;9.174;2022-12-07T06:27:26;5.00;;;3.83;;
13463;SDS011;6804;48.774;9.174;2022-12-07T06:29:54;5.33;;;4.07;;
13463;SDS011;6804;48.774;9.174;2022-12-07T06:32:25;5.07;;;4.20;;
13463;SDS011;6804;48.774;9.174;2022-12-07T06:34:54;7.83;;;4.50;;
13463;SDS011;6804;48.774;9.174;2022-12-07T06:37:22;5.47;;;4.73;;
13463;SDS011;6804;48.774;9.174;2022-12-07T06:39:49;7.57;;;4.33;;
13463;SDS011;6804;48.774;9.174;2022-12-07T06:42:19;5.13;;;4.37;;
13463;SDS011;6804;48.774;9.174;2022-12-07T06:44:47;5.60;;;3.83;;
13463;SDS011;6804;48.774;9.174;2022-12-07T06:47:14;4.50;;;3.73;;
13463;SDS011;6804;48.774;9.174;2022-12-07T06:49:43;5.33;;;4.50;;
13463;SDS011;6804;48.774;9.174;2022-12-07T06:52:10;5.50;;;4.17;;
13463;SDS011;6804;48.774;9.174;2022-12-07T06:54:40;6.03;;;4.17;;
13463;SDS011;6804;48.774;9.174;2022-12-07T06:57:08;5.13;;;4.10;;
13463;SDS011;6804;48.774;9.174;2022-12-07T06:59:38;5.57;;;4.53;;
13463;SDS011;6804;48.774;9.174;2022-12-07T07:02:05;7.07;;;4.10;;
13463;SDS011;6804;48.774;9.174;2022-12-07T07:04:34;4.80;;;4.20;;
13463;SDS011;6804;48.774;9.174;2022-12-07T07:07:02;6.20;;;4.33;;
13463;SDS011;6804;48.774;9.174;2022-12-07T07:09:29;5.77;;;4.30;;
13463;SDS011;6804;48.774;9.174;2022-12-07T07:11:59;4.37;;;3.80;;
13463;SDS011;6804;48.774;9.174;2022-12-07T07:14:30;5.20;;;3.57;;
13463;SDS011;6804;48.774;9.174;2022-12-07T07:16:58;4.57;;;3.97;;
13463;SDS011;6804;48.774;9.174;2022-12-07T07:19:25;4.33;;;3.70;;
13463;SDS011;6804;48.774;9.174;2022-12-07T07:21:52;5.17;;;4.07;;
13463;SDS011;6804;48.774;9.174;2022-12-07T07:24:21;4.80;;;3.77;;
13463;SDS011;6804;48.774;9.174;2022-12-07T07:26:50;5.23;;;4.33;;
13463;SDS011;6804;48.774;9.174;2022-12-07T07:29:17;4.77;;;4.00;;
13463;SDS011;6804;48.774;9.174;2022-12-07T07:31:48;5.00;;;3.57;;
13463;SDS011;6804;48.774;9.174;2022-12-07T07:34:19;5.27;;;4.23;;
13463;SDS011;6804;48.774;9.174;2022-12-07T07:36:47;5.57;;;4.23;;
13463;SDS011;6804;48.774;9.174;2022-12-07T07:39:14;5.00;;;4.23;;
13463;SDS011;6804;48.774;9.174;2022-12-07T07:41:43;5.73;;;4.23;;
13463;SDS011;6804;48.774;9.174;2022-12-07T07:44:10;5.43;;;4.17;;
13463;SDS011;6804;48.774;9.174;2022-12-07T07:46:40;4.83;;;3.50;;
13463;SDS011;6804;48.774;9.174;2022-12-07T07:49:08;5.23;;;3.90;;
13463;SDS011;6804;48.774;9.174;2022-12-07T07:51:36;6.20;;;4.30;;
13463;SDS011;6804;48.774;9.174;2022-12-07T07:54:06;5.03;;;4.17;;
13463;SDS011;6804;48.774;9.174;2022-12-07T07:56:35;5.77;;;4.23;;
13463;SDS011;6804;48.774;9.174;2022-12-07T07:59:04;4.77;;;4.00;;
13463;SDS011;6804;48.774;9.174;2022-12-07T08:01:31;5.23;;;3.77;;
13463;SDS011;6804;48.774;9.174;2022-12-07T08:03:59;6.23;;;4.27;;
13463;SDS011;6804;48.774;9.174;2022-12-07T08:06:34;5.67;;;3.90;;
13463;SDS011;6804;48.774;9.174;2022-12-07T08:09:01;5.37;;;3.63;;
13463;SDS011;6804;48.774;9.174;2022-12-07T08:11:31;4.63;;;3.80;;
13463;SDS011;6804;48.774;9.174;2022-12-07T08:14:01;5.17;;;3.60;;
13463;SDS011;6804;48.774;9.174;2022-12-07T08:16:33;5.83;;;3.57;;
13463;SDS011;6804;48.774;9.174;2022-12-07T08:19:00;4.40;;;3.60;;
13463;SDS011;6804;48.774;9.174;2022-12-07T08:21:28;6.83;;;4.20;;
13463;SDS011;6804;48.774;9.174;2022-12-07T08:23:58;5.13;;;3.70;;
13463;SDS011;6804;48.774;9.174;2022-12-07T08:26:32;6.37;;;4.50;;
13463;SDS011;6804;48.774;9.174;2022-12-07T08:29:00;4.20;;;3.77;;
13463;SDS011;6804;48.774;9.174;2022-12-07T08:31:32;5.10;;;3.93;;
13463;SDS011;6804;48.774;9.174;2022-12-07T08:34:05;6.33;;;4.10;;
13463;SDS011;6804;48.774;9.174;2022-12-07T08:36:35;6.63;;;4.20;;
13463;SDS011;6804;48.774;9.174;2022-12-07T08:39:03;5.73;;;4.70;;
13463;SDS011;6804;48.774;9.174;2022-12-07T08:41:31;5.43;;;4.00;;
13463;SDS011;6804;48.774;9.174;2022-12-07T08:44:02;6.40;;;3.97;;
13463;SDS011;6804;48.774;9.174;2022-12-07T08:46:33;5.30;;;3.90;;
13463;SDS011;6804;48.774;9.174;2022-12-07T08:49:06;6.23;;;4.50;;
13463;SDS011;6804;48.774;9.174;2022-12-07T08:51:39;4.80;;;4.13;;
13463;SDS011;6804;48.774;9.174;2022-12-07T08:54:11;8.53;;;4.57;;
13463;SDS011;6804;48.774;9.174;2022-12-07T08:56:43;9.40;;;4.47;;
13463;SDS011;6804;48.774;9.174;2022-12-07T08:59:12;15.80;;;5.83;;
13463;SDS011;6804;48.774;9.174;2022-12-07T09:01:43;31.50;;;8.37;;
13463;SDS011;6804;48.774;9.174;2022-12-07T09:04:13;15.80;;;5.90;;
13463;SDS011;6804;48.774;9.174;2022-12-07T09:06:41;8.67;;;4.43;;
13463;SDS011;6804;48.774;9.174;2022-12-07T09:09:08;5.10;;;3.90;;
13463;SDS011;6804;48.774;9.174;2022-12-07T09:11:36;6.70;;;4.50;;
13463;SDS011;6804;48.774;9.174;2022-12-07T09:14:04;6.53;;;4.00;;
13463;SDS011;6804;48.774;9.174;2022-12-07T09:16:31;6.63;;;4.30;;
13463;SDS011;6804;48.774;9.174;2022-12-07T09:19:03;5.80;;;3.67;;
13463;SDS011;6804;48.774;9.174;2022-12-07T09:21:33;4.73;;;3.80;;
13463;SDS011;6804;48.774;9.174;2022-12-07T09:24:04;5.03;;;4.10;;
13463;SDS011;6804;48.774;9.174;2022-12-07T09:26:33;5.27;;;3.63;;
13463;SDS011;6804;48.774;9.174;2022-12-07T09:29:02;4.20;;;3.80;;
13463;SDS011;6804;48.774;9.174;2022-12-07T09:31:30;3.33;;;2.63;;
13463;SDS011;6804;48.774;9.174;2022-12-07T09:34:04;3.73;;;3.00;;
13463;SDS011;6804;48.774;9.174;2022-12-07T09:36:35;3.07;;;2.50;;
13463;SDS011;6804;48.774;9.174;2022-12-07T09:39:05;5.07;;;2.77;;
13463;SDS011;6804;48.774;9.174;2022-12-07T09:41:36;3.30;;;2.90;;
13463;SDS011;6804;48.774;9.174;2022-12-07T09:44:05;4.47;;;3.17;;
13463;SDS011;6804;48.774;9.174;2022-12-07T09:46:36;4.63;;;3.60;;
13463;SDS011;6804;48.774;9.174;2022-12-07T09:49:07;3.63;;;3.00;;
13463;SDS011;6804;48.774;9.174;2022-12-07T09:51:43;4.53;;;3.00;;
13463;SDS011;6804;48.774;9.174;2022-12-07T09:54:14;5.03;;;3.17;;
13463;SDS011;6804;48.774;9.174;2022-12-07T09:56:47;5.23;;;2.90;;
13463;SDS011;6804;48.774;9.174;2022-12-07T09:59:16;4.37;;;2.50;;
13463;SDS011;6804;48.774;9.174;2022-12-07T10:01:48;4.63;;;3.03;;
13463;SDS011;6804;48.774;9.174;2022-12-07T10:04:18;3.40;;;3.00;;
13463;SDS011;6804;48.774;9.174;2022-12-07T10:06:49;4.67;;;3.00;;
13463;SDS011;6804;48.774;9.174;2022-12-07T10:09:18;3.87;;;3.10;;
13463;SDS011;6804;48.774;9.174;2022-12-07T10:12:02;5.47;;;3.97;;
13463;SDS011;6804;48.774;9.174;2022-12-07T10:14:38;3.17;;;2.70;;
13463;SDS011;6804;48.774;9.174;2022-12-07T10:17:33;4.17;;;2.90;;
13463;SDS011;6804;48.774;9.174;2022-12-07T10:20:19;3.27;;;2.60;;
13463;SDS011;6804;48.774;9.174;2022-12-07T10:22:55;3.63;;;2.50;;
13463;SDS011;6804;48.774;9.174;2022-12-07T10:25:25;3.10;;;2.37;;
13463;SDS011;6804;48.774;9.174;2022-12-07T10:27:58;4.20;;;2.50;;
13463;SDS011;6804;48.774;9.174;2022-12-07T10:30:29;4.30;;;2.43;;
13463;SDS011;6804;48.774;9.174;2022-12-07T10:32:58;3.97;;;2.47;;
13463;SDS011;6804;48.774;9.174;2022-12-07T10:35:30;4.47;;;2.30;;
13463;SDS011;6804;48.774;9.174;2022-12-07T10:38:08;2.57;;;2.20;;
13463;SDS011;6804;48.774;9.174;2022-12-07T10:40:49;2.80;;;2.23;;
13463;SDS011;6804;48.774;9.174;2022-12-07T10:43:32;4.00;;;2.60;;
13463;SDS011;6804;48.774;9.174;2022-12-07T10:48:53;4.07;;;3.00;;
13463;SDS011;6804;48.774;9.174;2022-12-07T10:51:33;2.90;;;2.60;;
13463;SDS011;6804;48.774;9.174;2022-12-07T10:54:12;2.67;;;2.00;;
13463;SDS011;6804;48.774;9.174;2022-12-07T10:57:06;2.63;;;2.13;;
13463;SDS011;6804;48.774;9.174;2022-12-07T10:59:53;3.80;;;2.70;;
13463;SDS011;6804;48.774;9.174;2022-12-07T11:05:32;4.53;;;2.83;;
13463;SDS011;6804;48.774;9.174;2022-12-07T11:08:12;5.07;;;3.00;;
13463;SDS011;6804;48.774;9.174;2022-12-07T11:11:00;5.30;;;2.93;;
13463;SDS011;6804;48.774;9.174;2022-12-07T11:13:37;4.33;;;2.47;;
13463;SDS011;6804;48.774;9.174;2022-12-07T11:16:16;5.87;;;3.13;;
13463;SDS011;6804;48.774;9.174;2022-12-07T11:19:12;3.70;;;2.33;;
13463;SDS011;6804;48.774;9.174;2022-12-07T11:21:56;11.83;;;4.00;;
13463;SDS011;6804;48.774;9.174;2022-12-07T11:24:35;3.20;;;2.50;;
13463;SDS011;6804;48.774;9.174;2022-12-07T11:27:17;5.17;;;2.70;;
13463;SDS011;6804;48.774;9.174;2022-12-07T11:30:02;4.87;;;2.70;;
13463;SDS011;6804;48.774;9.174;2022-12-07T11:32:46;8.37;;;3.50;;
13463;SDS011;6804;48.774;9.174;2022-12-07T11:35:24;5.03;;;2.60;;
13463;SDS011;6804;48.774;9.174;2022-12-07T11:38:07;4.50;;;3.40;;
13463;SDS011;6804;48.774;9.174;2022-12-07T11:40:39;4.07;;;3.57;;
13463;SDS011;6804;48.774;9.174;2022-12-07T11:43:13;4.53;;;3.30;;
13463;SDS011;6804;48.774;9.174;2022-12-07T11:45:52;5.30;;;2.77;;
13463;SDS011;6804;48.774;9.174;2022-12-07T11:48:29;3.57;;;2.00;;
13463;SDS011;6804;48.774;9.174;2022-12-07T11:51:03;3.40;;;2.00;;
13463;SDS011;6804;48.774;9.174;2022-12-07T11:53:37;3.87;;;2.40;;
13463;SDS011;6804;48.774;9.174;2022-12-07T11:56:11;2.13;;;1.93;;
13463;SDS011;6804;48.774;9.174;2022-12-07T11:58:42;2.70;;;2.10;;
13463;SDS011;6804;48.774;9.174;2022-12-07T12:01:19;1.70;;;1.60;;
13463;SDS011;6804;48.774;9.174;2022-12-07T12:03:56;3.30;;;2.50;;
13463;SDS011;6804;48.774;9.174;2022-12-07T12:06:29;3.43;;;2.57;;
13463;SDS011;6804;48.774;9.174;2022-12-07T12:08:58;6.13;;;3.00;;
13463;SDS011;6804;48.774;9.174;2022-12-07T12:11:39;3.83;;;3.00;;
13463;SDS011;6804;48.774;9.174;2022-12-07T12:14:30;5.53;;;3.30;;
13463;SDS011;6804;48.774;9.174;2022-12-07T12:20:29;4.30;;;3.40;;
13463;SDS011;6804;48.774;9.174;2022-12-07T12:23:05;7.90;;;3.43;;
13463;SDS011;6804;48.774;9.174;2022-12-07T12:25:38;7.50;;;3.73;;
13463;SDS011;6804;48.774;9.174;2022-12-07T12:28:18;7.83;;;4.43;;
13463;SDS011;6804;48.774;9.174;2022-12-07T12:31:04;4.80;;;3.50;;
13463;SDS011;6804;48.774;9.174;2022-12-07T12:33:36;8.30;;;4.63;;
13463;SDS011;6804;48.774;9.174;2022-12-07T12:36:19;4.07;;;3.67;;
13463;SDS011;6804;48.774;9.174;2022-12-07T12:38:50;4.77;;;4.10;;
13463;SDS011;6804;48.774;9.174;2022-12-07T12:44:41;4.47;;;3.60;;
13463;SDS011;6804;48.774;9.174;2022-12-07T12:47:41;5.27;;;4.77;;
13463;SDS011;6804;48.774;9.174;2022-12-07T12:50:21;3.83;;;3.43;;
13463;SDS011;6804;48.774;9.174;2022-12-07T12:52:55;5.70;;;4.47;;
13463;SDS011;6804;48.774;9.174;2022-12-07T12:58:44;3.83;;;3.07;;
13463;SDS011;6804;48.774;9.174;2022-12-07T13:07:10;5.10;;;4.40;;
13463;SDS011;6804;48.774;9.174;2022-12-07T13:09:43;4.90;;;3.87;;
13463;SDS011;6804;48.774;9.174;2022-12-07T13:12:12;5.03;;;4.07;;
13463;SDS011;6804;48.774;9.174;2022-12-07T13:14:42;4.87;;;3.63;;
13463;SDS011;6804;48.774;9.174;2022-12-07T13:20:51;7.97;;;3.90;;
13463;SDS011;6804;48.774;9.174;2022-12-07T13:23:26;6.90;;;3.47;;
13463;SDS011;6804;48.774;9.174;2022-12-07T13:26:16;9.97;;;4.00;;
13463;SDS011;6804;48.774;9.174;2022-12-07T13:28:46;4.57;;;2.90;;
13463;SDS011;6804;48.774;9.174;2022-12-07T13:34:05;6.97;;;3.17;;
13463;SDS011;6804;48.774;9.174;2022-12-07T13:37:02;7.73;;;4.03;;
13463;SDS011;6804;48.774;9.174;2022-12-07T13:39:44;5.37;;;3.10;;
13463;SDS011;6804;48.774;9.174;2022-12-07T13:42:18;5.63;;;2.90;;
13463;SDS011;6804;48.774;9.174;2022-12-07T13:44:50;4.83;;;3.23;;
13463;SDS011;6804;48.774;9.174;2022-12-07T13:47:22;3.57;;;3.00;;
13463;SDS011;6804;48.774;9.174;2022-12-07T13:49:59;3.93;;;2.87;;
13463;SDS011;6804;48.774;9.174;2022-12-07T13:52:27;3.00;;;2.70;;
13463;SDS011;6804;48.774;9.174;2022-12-07T13:55:00;2.73;;;2.53;;
13463;SDS011;6804;48.774;9.174;2022-12-07T13:57:38;4.67;;;3.37;;
13463;SDS011;6804;48.774;9.174;2022-12-07T14:00:13;4.03;;;2.77;;
13463;SDS011;6804;48.774;9.174;2022-12-07T14:02:54;5.70;;;3.03;;
13463;SDS011;6804;48.774;9.174;2022-12-07T14:05:26;3.83;;;3.40;;
13463;SDS011;6804;48.774;9.174;2022-12-07T14:07:57;4.50;;;3.20;;
13463;SDS011;6804;48.774;9.174;2022-12-07T14:10:28;3.97;;;3.27;;
13463;SDS011;6804;48.774;9.174;2022-12-07T14:12:57;3.90;;;3.20;;
13463;SDS011;6804;48.774;9.174;2022-12-07T14:15:26;4.33;;;3.40;;
13463;SDS011;6804;48.774;9.174;2022-12-07T14:21:06;6.63;;;4.00;;
13463;SDS011;6804;48.774;9.174;2022-12-07T14:23:42;4.60;;;3.77;;
13463;SDS011;6804;48.774;9.174;2022-12-07T14:26:13;4.83;;;3.90;;
13463;SDS011;6804;48.774;9.174;2022-12-07T14:28:42;3.73;;;3.27;;
13463;SDS011;6804;48.774;9.174;2022-12-07T14:31:14;3.13;;;2.83;;
13463;SDS011;6804;48.774;9.174;2022-12-07T14:33:43;4.50;;;3.63;;
13463;SDS011;6804;48.774;9.174;2022-12-07T14:36:15;3.30;;;2.90;;
13463;SDS011;6804;48.774;9.174;2022-12-07T14:38:43;3.50;;;3.17;;
13463;SDS011;6804;48.774;9.174;2022-12-07T14:41:15;4.67;;;3.07;;
13463;SDS011;6804;48.774;9.174;2022-12-07T14:44:07;2.97;;;2.63;;
13463;SDS011;6804;48.774;9.174;2022-12-07T14:46:37;7.53;;;3.77;;
13463;SDS011;6804;48.774;9.174;2022-12-07T14:49:07;3.40;;;2.67;;
13463;SDS011;6804;48.774;9.174;2022-12-07T14:51:37;4.20;;;3.00;;
13463;SDS011;6804;48.774;9.174;2022-12-07T14:54:11;3.80;;;3.40;;
13463;SDS011;6804;48.774;9.174;2022-12-07T14:56:43;4.63;;;3.10;;
13463;SDS011;6804;48.774;9.174;2022-12-07T14:59:16;6.40;;;3.80;;
13463;SDS011;6804;48.774;9.174;2022-12-07T15:01:44;5.63;;;4.40;;
13463;SDS011;6804;48.774;9.174;2022-12-07T15:04:14;5.53;;;3.60;;
13463;SDS011;6804;48.774;9.174;2022-12-07T15:06:48;5.20;;;4.47;;
13463;SDS011;6804;48.774;9.174;2022-12-07T15:09:22;5.47;;;4.50;;
13463;SDS011;6804;48.774;9.174;2022-12-07T15:11:50;7.43;;;4.30;;
13463;SDS011;6804;48.774;9.174;2022-12-07T15:14:20;4.40;;;3.93;;
13463;SDS011;6804;48.774;9.174;2022-12-07T15:16:56;5.97;;;3.87;;
13463;SDS011;6804;48.774;9.174;2022-12-07T15:19:26;5.53;;;3.93;;
13463;SDS011;6804;48.774;9.174;2022-12-07T15:21:55;5.70;;;3.90;;
13463;SDS011;6804;48.774;9.174;2022-12-07T15:24:25;4.63;;;3.93;;
13463;SDS011;6804;48.774;9.174;2022-12-07T15:26:53;4.57;;;3.70;;
13463;SDS011;6804;48.774;9.174;2022-12-07T15:29:21;6.83;;;4.00;;
13463;SDS011;6804;48.774;9.174;2022-12-07T15:31:51;4.33;;;3.83;;
13463;SDS011;6804;48.774;9.174;2022-12-07T15:34:25;5.30;;;3.90;;
13463;SDS011;6804;48.774;9.174;2022-12-07T15:36:55;7.27;;;6.00;;
13463;SDS011;6804;48.774;9.174;2022-12-07T15:39:25;5.23;;;4.40;;
13463;SDS011;6804;48.774;9.174;2022-12-07T15:41:52;3.60;;;3.30;;
13463;SDS011;6804;48.774;9.174;2022-12-07T15:44:23;4.10;;;3.57;;
13463;SDS011;6804;48.774;9.174;2022-12-07T15:47:10;5.60;;;4.30;;
13463;SDS011;6804;48.774;9.174;2022-12-07T15:49:37;3.90;;;3.50;;
13463;SDS011;6804;48.774;9.174;2022-12-07T15:52:06;4.00;;;3.27;;
13463;SDS011;6804;48.774;9.174;2022-12-07T15:54:36;4.93;;;3.70;;
13463;SDS011;6804;48.774;9.174;2022-12-07T15:57:07;5.93;;;4.53;;
13463;SDS011;6804;48.774;9.174;2022-12-07T15:59:35;6.50;;;3.83;;
13463;SDS011;6804;48.774;9.174;2022-12-07T16:02:02;6.37;;;4.83;;
13463;SDS011;6804;48.774;9.174;2022-12-07T16:04:32;7.00;;;4.70;;